sensor_id;sensor_type;location;lat;lon;timestamp;pressure;altitude;pressure_sealevel;temperature;humidity
77770;BME280;66961;51.482;9.160;2023-08-08T00:01:14;99251.09;;;11.44;84.96
77770;BME280;66961;51.482;9.160;2023-08-08T00:03:39;99254.56;;;11.45;85.75
77770;BME280;66961;51.482;9.160;2023-08-08T00:06:04;99251.50;;;11.41;85.67
77770;BME280;66961;51.482;9.160;2023-08-08T00:08:30;99244.16;;;11.43;85.41
77770;BME280;66961;51.482;9.160;2023-08-08T00:10:55;99243.53;;;11.41;85.64
77770;BME280;66961;51.482;9.160;2023-08-08T00:13:20;99238.59;;;11.38;85.86
77770;BME280;66961;51.482;9.160;2023-08-08T00:15:45;99248.00;;;11.41;85.56
77770;BME280;66961;51.482;9.160;2023-08-08T00:18:11;99236.56;;;11.40;85.52
77770;BME280;66961;51.482;9.160;2023-08-08T00:20:36;99231.25;;;11.40;85.87
77770;BME280;66961;51.482;9.160;2023-08-08T00:23:01;99229.44;;;11.41;85.40
77770;BME280;66961;51.482;9.160;2023-08-08T00:25:27;99223.47;;;11.39;85.54
77770;BME280;66961;51.482;9.160;2023-08-08T00:27:52;99221.00;;;11.37;85.83
77770;BME280;66961;51.482;9.160;2023-08-08T00:30:17;99219.19;;;11.38;86.13
77770;BME280;66961;51.482;9.160;2023-08-08T00:32:43;99222.28;;;11.41;85.45
77770;BME280;66961;51.482;9.160;2023-08-08T00:35:08;99215.16;;;11.42;85.41
77770;BME280;66961;51.482;9.160;2023-08-08T00:37:34;99212.22;;;11.51;85.64
77770;BME280;66961;51.482;9.160;2023-08-08T00:39:59;99204.06;;;11.53;85.02
77770;BME280;66961;51.482;9.160;2023-08-08T00:42:24;99205.34;;;11.57;84.75
77770;BME280;66961;51.482;9.160;2023-08-08T00:44:49;99202.97;;;11.62;84.28
77770;BME280;66961;51.482;9.160;2023-08-08T00:47:15;99201.44;;;11.68;84.53
77770;BME280;66961;51.482;9.160;2023-08-08T00:49:40;99198.41;;;11.71;83.99
77770;BME280;66961;51.482;9.160;2023-08-08T00:52:06;99198.03;;;11.74;83.68
77770;BME280;66961;51.482;9.160;2023-08-08T00:54:32;99193.56;;;11.74;83.50
77770;BME280;66961;51.482;9.160;2023-08-08T00:56:57;99189.75;;;11.77;83.19
77770;BME280;66961;51.482;9.160;2023-08-08T00:59:23;99192.03;;;11.80;83.72
77770;BME280;66961;51.482;9.160;2023-08-08T01:01:48;99188.38;;;11.81;83.20
77770;BME280;66961;51.482;9.160;2023-08-08T01:04:14;99187.00;;;11.85;83.05
77770;BME280;66961;51.482;9.160;2023-08-08T01:06:47;99174.53;;;11.85;83.00
77770;BME280;66961;51.482;9.160;2023-08-08T01:09:24;99163.34;;;11.90;82.58
77770;BME280;66961;51.482;9.160;2023-08-08T01:11:54;99169.19;;;12.00;82.08
77770;BME280;66961;51.482;9.160;2023-08-08T01:14:22;99169.25;;;12.07;81.82
77770;BME280;66961;51.482;9.160;2023-08-08T01:16:49;99171.34;;;12.11;81.44
77770;BME280;66961;51.482;9.160;2023-08-08T01:19:22;99171.63;;;12.16;80.92
77770;BME280;66961;51.482;9.160;2023-08-08T01:21:52;99177.66;;;12.25;80.44
77770;BME280;66961;51.482;9.160;2023-08-08T01:24:21;99173.41;;;12.31;80.31
77770;BME280;66961;51.482;9.160;2023-08-08T01:26:47;99168.09;;;12.31;80.43
77770;BME280;66961;51.482;9.160;2023-08-08T01:29:13;99176.81;;;12.24;81.24
77770;BME280;66961;51.482;9.160;2023-08-08T01:31:38;99180.03;;;12.20;81.55
77770;BME280;66961;51.482;9.160;2023-08-08T01:34:03;99181.22;;;12.17;81.96
77770;BME280;66961;51.482;9.160;2023-08-08T01:36:33;99182.44;;;12.15;81.53
77770;BME280;66961;51.482;9.160;2023-08-08T01:39:01;99163.13;;;12.06;81.02
77770;BME280;66961;51.482;9.160;2023-08-08T01:41:26;99171.63;;;12.16;80.84
77770;BME280;66961;51.482;9.160;2023-08-08T01:43:52;99176.47;;;12.13;81.17
77770;BME280;66961;51.482;9.160;2023-08-08T01:46:18;99182.16;;;12.10;81.57
77770;BME280;66961;51.482;9.160;2023-08-08T01:48:46;99175.38;;;12.07;82.56
77770;BME280;66961;51.482;9.160;2023-08-08T01:51:12;99187.28;;;12.11;82.14
77770;BME280;66961;51.482;9.160;2023-08-08T01:53:37;99183.81;;;12.11;82.60
77770;BME280;66961;51.482;9.160;2023-08-08T01:56:02;99184.38;;;12.06;83.09
77770;BME280;66961;51.482;9.160;2023-08-08T01:58:28;99193.72;;;12.02;83.65
77770;BME280;66961;51.482;9.160;2023-08-08T02:00:53;99189.72;;;11.91;84.82
77770;BME280;66961;51.482;9.160;2023-08-08T02:03:18;99184.53;;;11.83;85.45
77770;BME280;66961;51.482;9.160;2023-08-08T02:05:44;99179.28;;;11.75;86.98
77770;BME280;66961;51.482;9.160;2023-08-08T02:08:09;99172.22;;;11.68;87.80
77770;BME280;66961;51.482;9.160;2023-08-08T02:10:34;99168.84;;;11.59;89.42
77770;BME280;66961;51.482;9.160;2023-08-08T02:13:00;99179.63;;;11.57;89.25
77770;BME280;66961;51.482;9.160;2023-08-08T02:15:25;99181.19;;;11.52;90.91
77770;BME280;66961;51.482;9.160;2023-08-08T02:17:50;99177.44;;;11.46;92.57
77770;BME280;66961;51.482;9.160;2023-08-08T02:20:15;99171.25;;;11.39;92.76
77770;BME280;66961;51.482;9.160;2023-08-08T02:22:41;99179.75;;;11.35;93.46
77770;BME280;66961;51.482;9.160;2023-08-08T02:25:06;99191.34;;;11.34;94.73
77770;BME280;66961;51.482;9.160;2023-08-08T02:27:32;99191.25;;;11.27;95.55
77770;BME280;66961;51.482;9.160;2023-08-08T02:29:57;99196.56;;;11.27;96.54
77770;BME280;66961;51.482;9.160;2023-08-08T02:32:23;99181.38;;;11.21;96.95
77770;BME280;66961;51.482;9.160;2023-08-08T02:34:48;99167.63;;;11.17;97.22
77770;BME280;66961;51.482;9.160;2023-08-08T02:37:14;99177.16;;;11.12;97.31
77770;BME280;66961;51.482;9.160;2023-08-08T02:39:39;99193.22;;;11.10;97.92
77770;BME280;66961;51.482;9.160;2023-08-08T02:42:04;99197.44;;;11.05;98.88
77770;BME280;66961;51.482;9.160;2023-08-08T02:44:30;99206.84;;;11.07;100.00
77770;BME280;66961;51.482;9.160;2023-08-08T02:46:55;99198.44;;;11.04;100.00
77770;BME280;66961;51.482;9.160;2023-08-08T02:49:20;99205.91;;;11.00;100.00
77770;BME280;66961;51.482;9.160;2023-08-08T02:51:46;99203.81;;;10.95;100.00
77770;BME280;66961;51.482;9.160;2023-08-08T02:54:11;99198.69;;;10.94;100.00
77770;BME280;66961;51.482;9.160;2023-08-08T02:56:36;99191.09;;;10.91;100.00
77770;BME280;66961;51.482;9.160;2023-08-08T02:59:01;99192.13;;;10.90;100.00
77770;BME280;66961;51.482;9.160;2023-08-08T03:01:27;99192.47;;;10.87;100.00
77770;BME280;66961;51.482;9.160;2023-08-08T03:03:52;99178.22;;;10.88;100.00
77770;BME280;66961;51.482;9.160;2023-08-08T03:06:17;99183.69;;;10.86;100.00
77770;BME280;66961;51.482;9.160;2023-08-08T03:08:43;99167.13;;;10.84;100.00
77770;BME280;66961;51.482;9.160;2023-08-08T03:11:08;99167.31;;;10.83;100.00
77770;BME280;66961;51.482;9.160;2023-08-08T03:13:33;99163.00;;;10.82;100.00
77770;BME280;66961;51.482;9.160;2023-08-08T03:15:58;99163.00;;;10.82;100.00
77770;BME280;66961;51.482;9.160;2023-08-08T03:18:24;99152.41;;;10.82;100.00
77770;BME280;66961;51.482;9.160;2023-08-08T03:20:49;99154.88;;;10.83;100.00
77770;BME280;66961;51.482;9.160;2023-08-08T03:23:14;99143.00;;;10.79;100.00
77770;BME280;66961;51.482;9.160;2023-08-08T03:25:40;99144.00;;;10.78;100.00
77770;BME280;66961;51.482;9.160;2023-08-08T03:28:05;99143.53;;;10.75;100.00
77770;BME280;66961;51.482;9.160;2023-08-08T03:30:30;99139.59;;;10.71;100.00
77770;BME280;66961;51.482;9.160;2023-08-08T03:32:55;99140.75;;;10.68;100.00
77770;BME280;66961;51.482;9.160;2023-08-08T03:35:21;99141.13;;;10.65;100.00
77770;BME280;66961;51.482;9.160;2023-08-08T03:37:46;99133.69;;;10.60;100.00
77770;BME280;66961;51.482;9.160;2023-08-08T03:40:11;99128.75;;;10.57;100.00
77770;BME280;66961;51.482;9.160;2023-08-08T03:42:37;99118.16;;;10.57;100.00
77770;BME280;66961;51.482;9.160;2023-08-08T03:45:02;99123.63;;;10.56;100.00
77770;BME280;66961;51.482;9.160;2023-08-08T03:47:28;99124.63;;;10.55;100.00
77770;BME280;66961;51.482;9.160;2023-08-08T03:49:55;99125.16;;;10.50;100.00
77770;BME280;66961;51.482;9.160;2023-08-08T03:52:20;99115.75;;;10.48;100.00
77770;BME280;66961;51.482;9.160;2023-08-08T03:54:46;99105.25;;;10.40;100.00
77770;BME280;66961;51.482;9.160;2023-08-08T03:57:11;99106.28;;;10.31;100.00
77770;BME280;66961;51.482;9.160;2023-08-08T03:59:36;99100.34;;;10.28;100.00
77770;BME280;66961;51.482;9.160;2023-08-08T04:02:02;99100.88;;;10.24;100.00
77770;BME280;66961;51.482;9.160;2023-08-08T04:04:27;99099.06;;;10.24;100.00
77770;BME280;66961;51.482;9.160;2023-08-08T04:06:52;99102.88;;;10.22;100.00
77770;BME280;66961;51.482;9.160;2023-08-08T04:09:18;99104.19;;;10.18;100.00
77770;BME280;66961;51.482;9.160;2023-08-08T04:11:43;99116.63;;;10.17;100.00
77770;BME280;66961;51.482;9.160;2023-08-08T04:14:08;99107.66;;;10.18;100.00
77770;BME280;66961;51.482;9.160;2023-08-08T04:16:33;99096.25;;;10.18;100.00
77770;BME280;66961;51.482;9.160;2023-08-08T04:18:59;99085.19;;;10.14;100.00
77770;BME280;66961;51.482;9.160;2023-08-08T04:21:24;99105.00;;;10.26;100.00
77770;BME280;66961;51.482;9.160;2023-08-08T04:23:49;99094.06;;;10.30;100.00
77770;BME280;66961;51.482;9.160;2023-08-08T04:26:15;99102.94;;;10.37;100.00
77770;BME280;66961;51.482;9.160;2023-08-08T04:28:40;99118.09;;;10.43;100.00
77770;BME280;66961;51.482;9.160;2023-08-08T04:31:05;99129.81;;;10.48;100.00
77770;BME280;66961;51.482;9.160;2023-08-08T04:33:30;99131.47;;;10.49;100.00
77770;BME280;66961;51.482;9.160;2023-08-08T04:35:56;99126.81;;;10.51;100.00
77770;BME280;66961;51.482;9.160;2023-08-08T04:38:21;99107.09;;;10.54;100.00
77770;BME280;66961;51.482;9.160;2023-08-08T04:40:46;99096.47;;;10.54;100.00
77770;BME280;66961;51.482;9.160;2023-08-08T04:43:11;99092.47;;;10.58;100.00
77770;BME280;66961;51.482;9.160;2023-08-08T04:45:37;99101.53;;;10.64;100.00
77770;BME280;66961;51.482;9.160;2023-08-08T04:48:02;99088.69;;;10.75;100.00
77770;BME280;66961;51.482;9.160;2023-08-08T04:50:27;99086.13;;;10.82;100.00
77770;BME280;66961;51.482;9.160;2023-08-08T04:52:53;99080.47;;;10.85;100.00
77770;BME280;66961;51.482;9.160;2023-08-08T04:55:18;99084.41;;;10.89;100.00
77770;BME280;66961;51.482;9.160;2023-08-08T04:57:43;99078.66;;;10.85;100.00
77770;BME280;66961;51.482;9.160;2023-08-08T05:00:09;99072.53;;;10.85;100.00
77770;BME280;66961;51.482;9.160;2023-08-08T05:02:35;99079.75;;;10.91;100.00
77770;BME280;66961;51.482;9.160;2023-08-08T05:05:00;99069.16;;;10.91;100.00
77770;BME280;66961;51.482;9.160;2023-08-08T05:07:26;99076.53;;;10.95;100.00
77770;BME280;66961;51.482;9.160;2023-08-08T05:09:52;99081.47;;;10.99;100.00
77770;BME280;66961;51.482;9.160;2023-08-08T05:12:17;99085.59;;;11.01;100.00
77770;BME280;66961;51.482;9.160;2023-08-08T05:14:42;99088.25;;;11.01;100.00
77770;BME280;66961;51.482;9.160;2023-08-08T05:17:08;99095.00;;;11.04;100.00
77770;BME280;66961;51.482;9.160;2023-08-08T05:19:33;99098.31;;;11.06;100.00
77770;BME280;66961;51.482;9.160;2023-08-08T05:21:59;99091.72;;;11.02;100.00
77770;BME280;66961;51.482;9.160;2023-08-08T05:24:24;99100.59;;;11.09;100.00
77770;BME280;66961;51.482;9.160;2023-08-08T05:26:50;99078.56;;;11.08;100.00
77770;BME280;66961;51.482;9.160;2023-08-08T05:29:15;99072.88;;;11.11;100.00
77770;BME280;66961;51.482;9.160;2023-08-08T05:31:40;99073.53;;;11.13;100.00
77770;BME280;66961;51.482;9.160;2023-08-08T05:34:05;99067.13;;;11.08;100.00
77770;BME280;66961;51.482;9.160;2023-08-08T05:36:31;99078.66;;;11.15;100.00
77770;BME280;66961;51.482;9.160;2023-08-08T05:38:56;99076.19;;;11.13;100.00
77770;BME280;66961;51.482;9.160;2023-08-08T05:41:21;99081.47;;;11.13;100.00
77770;BME280;66961;51.482;9.160;2023-08-08T05:43:46;99079.00;;;11.12;100.00
77770;BME280;66961;51.482;9.160;2023-08-08T05:46:12;99072.34;;;11.16;100.00
77770;BME280;66961;51.482;9.160;2023-08-08T05:48:37;99075.00;;;11.16;100.00
77770;BME280;66961;51.482;9.160;2023-08-08T05:51:02;99079.09;;;11.18;100.00
77770;BME280;66961;51.482;9.160;2023-08-08T05:53:28;99075.00;;;11.16;100.00
77770;BME280;66961;51.482;9.160;2023-08-08T05:55:53;99083.69;;;11.24;100.00
77770;BME280;66961;51.482;9.160;2023-08-08T05:58:18;99086.34;;;11.24;100.00
77770;BME280;66961;51.482;9.160;2023-08-08T06:00:43;99093.47;;;11.24;100.00
77770;BME280;66961;51.482;9.160;2023-08-08T06:03:09;99095.47;;;11.22;100.00
77770;BME280;66961;51.482;9.160;2023-08-08T06:05:34;99085.69;;;11.22;100.00
77770;BME280;66961;51.482;9.160;2023-08-08T06:07:59;99087.97;;;11.25;100.00
77770;BME280;66961;51.482;9.160;2023-08-08T06:10:25;99094.56;;;11.30;100.00
77770;BME280;66961;51.482;9.160;2023-08-08T06:12:50;99085.41;;;11.32;100.00
77770;BME280;66961;51.482;9.160;2023-08-08T06:15:15;99082.56;;;11.34;100.00
77770;BME280;66961;51.482;9.160;2023-08-08T06:17:40;99085.56;;;11.45;100.00
77770;BME280;66961;51.482;9.160;2023-08-08T06:20:06;99087.66;;;11.50;100.00
77770;BME280;66961;51.482;9.160;2023-08-08T06:22:32;99091.59;;;11.54;100.00
77770;BME280;66961;51.482;9.160;2023-08-08T06:24:57;99082.44;;;11.56;100.00
77770;BME280;66961;51.482;9.160;2023-08-08T06:27:22;99090.38;;;11.71;100.00
77770;BME280;66961;51.482;9.160;2023-08-08T06:29:47;99085.06;;;11.86;100.00
77770;BME280;66961;51.482;9.160;2023-08-08T06:32:13;99083.81;;;12.03;100.00
77770;BME280;66961;51.482;9.160;2023-08-08T06:34:38;99090.28;;;12.15;100.00
77770;BME280;66961;51.482;9.160;2023-08-08T06:37:03;99089.19;;;12.31;100.00
77770;BME280;66961;51.482;9.160;2023-08-08T06:39:29;99087.19;;;12.33;100.00
77770;BME280;66961;51.482;9.160;2023-08-08T06:41:54;99090.09;;;12.38;100.00
77770;BME280;66961;51.482;9.160;2023-08-08T06:44:19;99087.81;;;12.35;100.00
77770;BME280;66961;51.482;9.160;2023-08-08T06:46:44;99090.16;;;12.23;100.00
77770;BME280;66961;51.482;9.160;2023-08-08T06:49:10;99090.34;;;12.22;100.00
77770;BME280;66961;51.482;9.160;2023-08-08T06:51:35;99089.25;;;12.16;100.00
77770;BME280;66961;51.482;9.160;2023-08-08T06:54:01;99095.97;;;12.12;100.00
77770;BME280;66961;51.482;9.160;2023-08-08T06:56:26;99088.69;;;12.21;100.00
77770;BME280;66961;51.482;9.160;2023-08-08T06:58:52;99086.41;;;12.39;100.00
77770;BME280;66961;51.482;9.160;2023-08-08T07:01:18;99090.00;;;12.53;100.00
77770;BME280;66961;51.482;9.160;2023-08-08T07:03:43;99083.91;;;12.59;100.00
77770;BME280;66961;51.482;9.160;2023-08-08T07:06:09;99086.53;;;12.80;100.00
77770;BME280;66961;51.482;9.160;2023-08-08T07:08:34;99088.22;;;12.88;100.00
77770;BME280;66961;51.482;9.160;2023-08-08T07:10:59;99077.97;;;12.85;100.00
77770;BME280;66961;51.482;9.160;2023-08-08T07:13:24;99078.94;;;12.77;100.00
77770;BME280;66961;51.482;9.160;2023-08-08T07:15:50;99082.69;;;12.62;100.00
77770;BME280;66961;51.482;9.160;2023-08-08T07:18:15;99098.59;;;12.55;100.00
77770;BME280;66961;51.482;9.160;2023-08-08T07:20:40;99099.34;;;12.49;100.00
77770;BME280;66961;51.482;9.160;2023-08-08T07:23:06;99095.84;;;12.42;100.00
77770;BME280;66961;51.482;9.160;2023-08-08T07:25:31;99095.66;;;12.43;100.00
77770;BME280;66961;51.482;9.160;2023-08-08T07:27:56;99101.19;;;12.48;100.00
77770;BME280;66961;51.482;9.160;2023-08-08T07:30:22;99100.63;;;12.53;100.00
77770;BME280;66961;51.482;9.160;2023-08-08T07:32:47;99087.19;;;12.61;100.00
77770;BME280;66961;51.482;9.160;2023-08-08T07:35:12;99080.72;;;12.70;100.00
77770;BME280;66961;51.482;9.160;2023-08-08T07:37:38;99080.59;;;12.78;100.00
77770;BME280;66961;51.482;9.160;2023-08-08T07:40:13;99084.06;;;12.79;100.00
77770;BME280;66961;51.482;9.160;2023-08-08T07:42:38;99091.56;;;12.97;100.00
77770;BME280;66961;51.482;9.160;2023-08-08T07:45:04;99074.06;;;13.15;100.00
77770;BME280;66961;51.482;9.160;2023-08-08T07:47:29;99086.69;;;13.35;100.00
77770;BME280;66961;51.482;9.160;2023-08-08T07:49:55;99091.44;;;13.39;100.00
77770;BME280;66961;51.482;9.160;2023-08-08T07:52:20;99089.31;;;13.28;100.00
77770;BME280;66961;51.482;9.160;2023-08-08T07:54:45;99091.03;;;13.14;100.00
77770;BME280;66961;51.482;9.160;2023-08-08T07:57:11;99091.72;;;13.16;100.00
77770;BME280;66961;51.482;9.160;2023-08-08T07:59:36;99083.59;;;13.31;100.00
77770;BME280;66961;51.482;9.160;2023-08-08T08:02:01;99084.31;;;13.53;98.08
77770;BME280;66961;51.482;9.160;2023-08-08T08:04:26;99091.38;;;13.74;95.00
77770;BME280;66961;51.482;9.160;2023-08-08T08:06:52;99083.84;;;13.90;92.70
77770;BME280;66961;51.482;9.160;2023-08-08T08:09:17;99090.22;;;14.09;92.59
77770;BME280;66961;51.482;9.160;2023-08-08T08:11:42;99091.72;;;14.32;91.18
77770;BME280;66961;51.482;9.160;2023-08-08T08:14:07;99077.81;;;14.49;92.04
77770;BME280;66961;51.482;9.160;2023-08-08T08:16:33;99086.63;;;14.70;88.47
77770;BME280;66961;51.482;9.160;2023-08-08T08:18:58;99095.44;;;14.77;88.95
77770;BME280;66961;51.482;9.160;2023-08-08T08:21:23;99078.19;;;14.86;87.09
77770;BME280;66961;51.482;9.160;2023-08-08T08:23:48;99066.91;;;14.84;87.58
77770;BME280;66961;51.482;9.160;2023-08-08T08:26:14;99080.78;;;15.19;86.44
77770;BME280;66961;51.482;9.160;2023-08-08T08:28:39;99081.13;;;15.55;84.37
77770;BME280;66961;51.482;9.160;2023-08-08T08:31:05;99073.84;;;15.76;84.46
77770;BME280;66961;51.482;9.160;2023-08-08T08:33:31;99066.34;;;15.98;83.14
77770;BME280;66961;51.482;9.160;2023-08-08T08:35:56;99072.03;;;16.08;79.18
77770;BME280;66961;51.482;9.160;2023-08-08T08:38:21;99060.25;;;16.15;78.65
77770;BME280;66961;51.482;9.160;2023-08-08T08:40:47;99059.13;;;15.98;77.66
77770;BME280;66961;51.482;9.160;2023-08-08T08:43:13;99059.81;;;15.87;78.43
77770;BME280;66961;51.482;9.160;2023-08-08T08:45:38;99063.22;;;16.01;78.05
77770;BME280;66961;51.482;9.160;2023-08-08T08:48:08;99079.34;;;16.19;76.59
77770;BME280;66961;51.482;9.160;2023-08-08T08:50:34;99072.91;;;16.58;77.20
77770;BME280;66961;51.482;9.160;2023-08-08T08:53:00;99061.00;;;16.79;76.74
77770;BME280;66961;51.482;9.160;2023-08-08T08:55:26;99069.19;;;16.59;75.38
77770;BME280;66961;51.482;9.160;2023-08-08T08:57:52;99074.38;;;16.79;74.64
77770;BME280;66961;51.482;9.160;2023-08-08T09:00:18;99068.50;;;16.64;73.57
77770;BME280;66961;51.482;9.160;2023-08-08T09:02:44;99065.81;;;16.70;73.24
77770;BME280;66961;51.482;9.160;2023-08-08T09:05:12;99046.53;;;16.86;72.22
77770;BME280;66961;51.482;9.160;2023-08-08T09:07:38;99066.41;;;16.97;72.48
77770;BME280;66961;51.482;9.160;2023-08-08T09:10:04;99058.22;;;16.67;73.55
77770;BME280;66961;51.482;9.160;2023-08-08T09:12:30;99069.72;;;16.43;71.86
77770;BME280;66961;51.482;9.160;2023-08-08T09:14:56;99059.69;;;16.63;72.86
77770;BME280;66961;51.482;9.160;2023-08-08T09:17:21;99068.22;;;16.78;72.64
77770;BME280;66961;51.482;9.160;2023-08-08T09:19:46;99068.81;;;16.80;71.66
77770;BME280;66961;51.482;9.160;2023-08-08T09:22:13;99057.09;;;17.18;73.69
77770;BME280;66961;51.482;9.160;2023-08-08T09:24:40;99057.84;;;17.43;69.51
77770;BME280;66961;51.482;9.160;2023-08-08T09:27:09;99054.81;;;17.40;70.55
77770;BME280;66961;51.482;9.160;2023-08-08T09:29:34;99056.94;;;16.95;69.87
77770;BME280;66961;51.482;9.160;2023-08-08T09:32:02;99053.00;;;17.34;70.66
77770;BME280;66961;51.482;9.160;2023-08-08T09:34:28;99050.56;;;17.32;69.03
77770;BME280;66961;51.482;9.160;2023-08-08T09:36:53;99041.50;;;17.15;68.20
77770;BME280;66961;51.482;9.160;2023-08-08T09:39:19;99056.50;;;17.34;69.69
77770;BME280;66961;51.482;9.160;2023-08-08T09:41:46;99043.13;;;17.34;68.35
77770;BME280;66961;51.482;9.160;2023-08-08T09:44:11;99036.28;;;17.38;66.83
77770;BME280;66961;51.482;9.160;2023-08-08T09:46:37;99037.47;;;17.24;66.66
77770;BME280;66961;51.482;9.160;2023-08-08T09:49:03;99042.00;;;17.60;67.04
77770;BME280;66961;51.482;9.160;2023-08-08T09:51:28;99045.28;;;17.92;66.69
77770;BME280;66961;51.482;9.160;2023-08-08T09:53:55;99051.56;;;17.86;63.17
77770;BME280;66961;51.482;9.160;2023-08-08T09:56:22;99045.25;;;17.80;65.11
77770;BME280;66961;51.482;9.160;2023-08-08T09:58:48;99037.72;;;17.71;63.35
77770;BME280;66961;51.482;9.160;2023-08-08T10:01:14;99032.53;;;17.58;64.22
77770;BME280;66961;51.482;9.160;2023-08-08T10:03:41;99038.78;;;17.51;64.69
77770;BME280;66961;51.482;9.160;2023-08-08T10:06:06;99031.69;;;17.75;64.23
77770;BME280;66961;51.482;9.160;2023-08-08T10:08:31;99036.66;;;17.90;61.96
77770;BME280;66961;51.482;9.160;2023-08-08T10:10:57;99038.88;;;17.93;63.34
77770;BME280;66961;51.482;9.160;2023-08-08T10:13:25;99023.56;;;18.24;63.41
77770;BME280;66961;51.482;9.160;2023-08-08T10:15:51;99032.63;;;18.88;63.23
77770;BME280;66961;51.482;9.160;2023-08-08T10:18:17;99038.69;;;18.83;59.41
77770;BME280;66961;51.482;9.160;2023-08-08T10:20:44;99035.19;;;19.06;59.61
77770;BME280;66961;51.482;9.160;2023-08-08T10:23:11;99035.78;;;18.84;59.18
77770;BME280;66961;51.482;9.160;2023-08-08T10:25:47;99034.16;;;18.60;57.58
77770;BME280;66961;51.482;9.160;2023-08-08T10:28:14;99029.19;;;18.45;60.39
77770;BME280;66961;51.482;9.160;2023-08-08T10:30:55;99043.22;;;18.47;61.49
77770;BME280;66961;51.482;9.160;2023-08-08T10:33:24;99040.47;;;18.12;60.36
77770;BME280;66961;51.482;9.160;2023-08-08T10:36:08;99036.59;;;18.08;61.87
77770;BME280;66961;51.482;9.160;2023-08-08T10:38:45;99028.09;;;18.11;60.80
77770;BME280;66961;51.482;9.160;2023-08-08T10:41:18;99030.19;;;18.09;61.76
77770;BME280;66961;51.482;9.160;2023-08-08T10:46:26;99034.34;;;17.94;60.01
77770;BME280;66961;51.482;9.160;2023-08-08T10:48:53;99037.75;;;17.52;61.94
77770;BME280;66961;51.482;9.160;2023-08-08T10:51:19;99035.06;;;17.52;61.48
77770;BME280;66961;51.482;9.160;2023-08-08T10:53:45;99031.56;;;17.52;61.77
77770;BME280;66961;51.482;9.160;2023-08-08T10:56:13;99032.47;;;17.46;60.37
77770;BME280;66961;51.482;9.160;2023-08-08T10:58:42;99033.28;;;17.65;59.12
77770;BME280;66961;51.482;9.160;2023-08-08T11:01:11;99027.88;;;18.13;59.23
77770;BME280;66961;51.482;9.160;2023-08-08T11:03:38;99040.00;;;18.27;55.22
77770;BME280;66961;51.482;9.160;2023-08-08T11:06:06;99033.09;;;18.61;54.35
77770;BME280;66961;51.482;9.160;2023-08-08T11:08:32;99027.16;;;18.71;54.55
77770;BME280;66961;51.482;9.160;2023-08-08T11:10:58;99034.53;;;18.34;54.65
77770;BME280;66961;51.482;9.160;2023-08-08T11:13:23;99039.97;;;18.04;55.29
77770;BME280;66961;51.482;9.160;2023-08-08T11:15:49;99038.09;;;18.04;56.42
77770;BME280;66961;51.482;9.160;2023-08-08T11:18:14;99041.09;;;18.38;55.21
77770;BME280;66961;51.482;9.160;2023-08-08T11:20:40;99024.78;;;19.09;53.95
77770;BME280;66961;51.482;9.160;2023-08-08T11:23:05;99053.63;;;18.91;53.22
77770;BME280;66961;51.482;9.160;2023-08-08T11:25:31;99033.34;;;18.71;54.00
77770;BME280;66961;51.482;9.160;2023-08-08T11:27:57;99019.22;;;19.39;54.24
77770;BME280;66961;51.482;9.160;2023-08-08T11:30:24;99028.78;;;19.59;52.74
77770;BME280;66961;51.482;9.160;2023-08-08T11:32:52;99016.28;;;19.01;53.46
77770;BME280;66961;51.482;9.160;2023-08-08T11:35:22;99015.94;;;18.74;54.63
77770;BME280;66961;51.482;9.160;2023-08-08T11:37:49;99045.78;;;18.54;55.36
77770;BME280;66961;51.482;9.160;2023-08-08T11:40:16;99019.47;;;18.21;54.24
77770;BME280;66961;51.482;9.160;2023-08-08T11:42:42;99021.28;;;17.97;55.44
77770;BME280;66961;51.482;9.160;2023-08-08T11:45:09;99020.22;;;17.86;55.67
77770;BME280;66961;51.482;9.160;2023-08-08T11:47:35;99013.53;;;17.77;56.15
77770;BME280;66961;51.482;9.160;2023-08-08T11:50:00;99016.19;;;17.66;54.70
77770;BME280;66961;51.482;9.160;2023-08-08T11:52:25;99026.97;;;17.41;54.21
77770;BME280;66961;51.482;9.160;2023-08-08T11:54:51;99014.69;;;17.33;55.28
77770;BME280;66961;51.482;9.160;2023-08-08T11:57:16;99022.28;;;17.36;56.41
77770;BME280;66961;51.482;9.160;2023-08-08T11:59:42;99031.44;;;17.29;55.85
77770;BME280;66961;51.482;9.160;2023-08-08T12:02:07;99033.38;;;17.21;56.82
77770;BME280;66961;51.482;9.160;2023-08-08T12:04:34;99026.94;;;17.11;58.38
77770;BME280;66961;51.482;9.160;2023-08-08T12:07:03;99038.75;;;17.03;58.24
77770;BME280;66961;51.482;9.160;2023-08-08T12:09:31;99029.81;;;16.91;59.04
77770;BME280;66961;51.482;9.160;2023-08-08T12:11:59;99032.81;;;16.76;60.77
77770;BME280;66961;51.482;9.160;2023-08-08T12:14:24;99032.94;;;16.63;62.07
77770;BME280;66961;51.482;9.160;2023-08-08T12:16:49;99031.19;;;16.50;60.92
77770;BME280;66961;51.482;9.160;2023-08-08T12:19:15;99023.97;;;16.51;62.27
77770;BME280;66961;51.482;9.160;2023-08-08T12:21:40;99038.88;;;16.65;63.82
77770;BME280;66961;51.482;9.160;2023-08-08T12:24:06;99034.31;;;16.47;62.65
77770;BME280;66961;51.482;9.160;2023-08-08T12:26:31;99060.66;;;16.44;65.99
77770;BME280;66961;51.482;9.160;2023-08-08T12:28:57;99073.97;;;15.94;69.81
77770;BME280;66961;51.482;9.160;2023-08-08T12:31:22;99058.53;;;15.45;74.27
77770;BME280;66961;51.482;9.160;2023-08-08T12:33:47;99072.84;;;15.06;78.43
77770;BME280;66961;51.482;9.160;2023-08-08T12:36:12;99066.72;;;14.85;80.31
77770;BME280;66961;51.482;9.160;2023-08-08T12:38:38;99067.94;;;14.70;81.37
77770;BME280;66961;51.482;9.160;2023-08-08T12:41:03;99072.47;;;14.69;85.44
77770;BME280;66961;51.482;9.160;2023-08-08T12:43:28;99061.56;;;14.84;85.75
77770;BME280;66961;51.482;9.160;2023-08-08T12:45:54;99069.91;;;15.27;84.20
77770;BME280;66961;51.482;9.160;2023-08-08T12:48:19;99066.34;;;15.60;83.10
77770;BME280;66961;51.482;9.160;2023-08-08T12:50:44;99064.72;;;15.39;83.01